sensor_id;sensor_type;location;lat;lon;timestamp;temperature;humidity
1347;DHT22;667;48.796;9.480;2022-10-16T00:00:44;17.80;96.30
1347;DHT22;667;48.796;9.480;2022-10-16T00:03:10;17.80;96.30
1347;DHT22;667;48.796;9.480;2022-10-16T00:05:43;17.80;96.40
1347;DHT22;667;48.796;9.480;2022-10-16T00:08:11;17.80;96.50
1347;DHT22;667;48.796;9.480;2022-10-16T00:10:37;17.80;96.40
1347;DHT22;667;48.796;9.480;2022-10-16T00:13:04;17.80;96.40
1347;DHT22;667;48.796;9.480;2022-10-16T00:15:30;17.80;96.40
1347;DHT22;667;48.796;9.480;2022-10-16T00:17:57;17.70;96.30
1347;DHT22;667;48.796;9.480;2022-10-16T00:20:23;17.80;96.40
1347;DHT22;667;48.796;9.480;2022-10-16T00:22:49;17.80;96.40
1347;DHT22;667;48.796;9.480;2022-10-16T00:25:14;17.80;96.40
1347;DHT22;667;48.796;9.480;2022-10-16T00:27:40;17.80;96.30
1347;DHT22;667;48.796;9.480;2022-10-16T00:30:06;17.80;96.30
1347;DHT22;667;48.796;9.480;2022-10-16T00:32:33;17.80;96.20
1347;DHT22;667;48.796;9.480;2022-10-16T00:34:59;17.80;96.20
1347;DHT22;667;48.796;9.480;2022-10-16T00:37:24;17.70;96.10
1347;DHT22;667;48.796;9.480;2022-10-16T00:39:50;17.70;96.10
1347;DHT22;667;48.796;9.480;2022-10-16T00:42:17;17.70;96.00
1347;DHT22;667;48.796;9.480;2022-10-16T00:44:46;17.70;96.00
1347;DHT22;667;48.796;9.480;2022-10-16T00:47:34;17.70;95.90
1347;DHT22;667;48.796;9.480;2022-10-16T00:50:26;17.60;95.90
1347;DHT22;667;48.796;9.480;2022-10-16T00:52:52;17.60;96.00
1347;DHT22;667;48.796;9.480;2022-10-16T00:55:19;17.60;96.00
1347;DHT22;667;48.796;9.480;2022-10-16T00:57:46;17.60;96.00
1347;DHT22;667;48.796;9.480;2022-10-16T01:00:16;17.60;95.90
1347;DHT22;667;48.796;9.480;2022-10-16T01:02:42;17.60;96.00
1347;DHT22;667;48.796;9.480;2022-10-16T01:05:08;17.60;95.90
1347;DHT22;667;48.796;9.480;2022-10-16T01:07:55;17.60;95.80
1347;DHT22;667;48.796;9.480;2022-10-16T01:13:07;17.50;95.70
1347;DHT22;667;48.796;9.480;2022-10-16T01:15:41;17.50;95.70
1347;DHT22;667;48.796;9.480;2022-10-16T01:18:18;17.50;95.60
1347;DHT22;667;48.796;9.480;2022-10-16T01:20:50;17.50;95.60
1347;DHT22;667;48.796;9.480;2022-10-16T01:23:33;17.40;95.50
1347;DHT22;667;48.796;9.480;2022-10-16T01:31:18;17.40;95.50
1347;DHT22;667;48.796;9.480;2022-10-16T01:34:06;17.30;95.40
1347;DHT22;667;48.796;9.480;2022-10-16T01:37:08;17.40;95.40
1347;DHT22;667;48.796;9.480;2022-10-16T01:39:37;17.40;95.30
1347;DHT22;667;48.796;9.480;2022-10-16T01:42:17;17.30;95.20
1347;DHT22;667;48.796;9.480;2022-10-16T01:44:45;17.30;95.40
1347;DHT22;667;48.796;9.480;2022-10-16T01:47:13;17.20;95.60
1347;DHT22;667;48.796;9.480;2022-10-16T01:49:40;17.20;95.50
1347;DHT22;667;48.796;9.480;2022-10-16T01:52:09;17.20;95.60
1347;DHT22;667;48.796;9.480;2022-10-16T01:54:37;17.20;95.70
1347;DHT22;667;48.796;9.480;2022-10-16T01:57:06;17.20;95.70
1347;DHT22;667;48.796;9.480;2022-10-16T01:59:36;17.20;95.70
1347;DHT22;667;48.796;9.480;2022-10-16T02:02:07;17.20;95.70
1347;DHT22;667;48.796;9.480;2022-10-16T02:04:38;17.20;95.70
1347;DHT22;667;48.796;9.480;2022-10-16T02:07:05;17.20;95.80
1347;DHT22;667;48.796;9.480;2022-10-16T02:09:33;17.20;95.70
1347;DHT22;667;48.796;9.480;2022-10-16T02:12:01;17.20;95.80
1347;DHT22;667;48.796;9.480;2022-10-16T02:14:29;17.20;95.70
1347;DHT22;667;48.796;9.480;2022-10-16T02:16:54;17.20;95.70
1347;DHT22;667;48.796;9.480;2022-10-16T02:19:20;17.20;95.70
1347;DHT22;667;48.796;9.480;2022-10-16T02:21:51;17.20;95.70
1347;DHT22;667;48.796;9.480;2022-10-16T02:24:47;17.20;95.70
1347;DHT22;667;48.796;9.480;2022-10-16T02:27:25;17.20;95.60
1347;DHT22;667;48.796;9.480;2022-10-16T02:30:02;17.20;95.60
1347;DHT22;667;48.796;9.480;2022-10-16T02:32:33;17.20;95.70
1347;DHT22;667;48.796;9.480;2022-10-16T02:35:00;17.20;95.80
1347;DHT22;667;48.796;9.480;2022-10-16T02:37:27;17.20;95.90
1347;DHT22;667;48.796;9.480;2022-10-16T02:39:55;17.20;95.90
1347;DHT22;667;48.796;9.480;2022-10-16T02:42:20;17.20;95.90
1347;DHT22;667;48.796;9.480;2022-10-16T02:44:52;17.20;95.90
1347;DHT22;667;48.796;9.480;2022-10-16T02:47:18;17.20;95.90
1347;DHT22;667;48.796;9.480;2022-10-16T02:49:43;17.20;95.90
1347;DHT22;667;48.796;9.480;2022-10-16T02:52:09;17.20;96.00
1347;DHT22;667;48.796;9.480;2022-10-16T02:54:34;17.20;96.00
1347;DHT22;667;48.796;9.480;2022-10-16T02:57:00;17.20;96.00
1347;DHT22;667;48.796;9.480;2022-10-16T02:59:26;17.20;96.00
1347;DHT22;667;48.796;9.480;2022-10-16T03:01:51;17.20;96.00
1347;DHT22;667;48.796;9.480;2022-10-16T03:04:17;17.20;96.00
1347;DHT22;667;48.796;9.480;2022-10-16T03:06:42;17.20;96.00
1347;DHT22;667;48.796;9.480;2022-10-16T03:09:08;17.20;96.30
1347;DHT22;667;48.796;9.480;2022-10-16T03:11:33;17.20;96.00
1347;DHT22;667;48.796;9.480;2022-10-16T03:13:59;17.20;96.00
1347;DHT22;667;48.796;9.480;2022-10-16T03:16:24;17.20;95.90
1347;DHT22;667;48.796;9.480;2022-10-16T03:18:50;17.20;95.90
1347;DHT22;667;48.796;9.480;2022-10-16T03:21:16;17.20;95.90
1347;DHT22;667;48.796;9.480;2022-10-16T03:23:42;17.20;95.90
1347;DHT22;667;48.796;9.480;2022-10-16T03:26:07;17.20;95.90
1347;DHT22;667;48.796;9.480;2022-10-16T03:28:33;17.20;95.90
1347;DHT22;667;48.796;9.480;2022-10-16T03:30:58;17.20;95.80
1347;DHT22;667;48.796;9.480;2022-10-16T03:33:24;17.20;95.80
1347;DHT22;667;48.796;9.480;2022-10-16T03:35:54;17.20;95.80
1347;DHT22;667;48.796;9.480;2022-10-16T03:38:20;17.20;95.90
1347;DHT22;667;48.796;9.480;2022-10-16T03:40:46;17.20;95.80
1347;DHT22;667;48.796;9.480;2022-10-16T03:43:12;17.20;95.80
1347;DHT22;667;48.796;9.480;2022-10-16T03:45:37;17.20;95.80
1347;DHT22;667;48.796;9.480;2022-10-16T03:48:03;17.20;95.80
1347;DHT22;667;48.796;9.480;2022-10-16T03:50:29;17.20;95.80
1347;DHT22;667;48.796;9.480;2022-10-16T03:52:55;17.10;95.70
1347;DHT22;667;48.796;9.480;2022-10-16T03:55:20;17.20;95.80
1347;DHT22;667;48.796;9.480;2022-10-16T03:57:46;17.20;95.80
1347;DHT22;667;48.796;9.480;2022-10-16T04:00:12;17.10;95.70
1347;DHT22;667;48.796;9.480;2022-10-16T04:02:38;17.10;95.70
1347;DHT22;667;48.796;9.480;2022-10-16T04:05:04;17.10;95.60
1347;DHT22;667;48.796;9.480;2022-10-16T04:07:29;17.10;95.60
1347;DHT22;667;48.796;9.480;2022-10-16T04:09:55;17.10;95.60
1347;DHT22;667;48.796;9.480;2022-10-16T04:12:22;17.10;95.60
1347;DHT22;667;48.796;9.480;2022-10-16T04:14:47;17.10;95.50
1347;DHT22;667;48.796;9.480;2022-10-16T04:17:13;17.00;95.40
1347;DHT22;667;48.796;9.480;2022-10-16T04:19:39;17.10;95.40
1347;DHT22;667;48.796;9.480;2022-10-16T04:22:04;17.00;95.30
1347;DHT22;667;48.796;9.480;2022-10-16T04:24:30;17.00;95.20
1347;DHT22;667;48.796;9.480;2022-10-16T04:26:55;17.00;95.20
1347;DHT22;667;48.796;9.480;2022-10-16T04:29:21;17.00;95.20
1347;DHT22;667;48.796;9.480;2022-10-16T04:31:47;17.00;95.20
1347;DHT22;667;48.796;9.480;2022-10-16T04:34:12;17.00;95.20
1347;DHT22;667;48.796;9.480;2022-10-16T04:36:38;17.00;95.20
1347;DHT22;667;48.796;9.480;2022-10-16T04:39:03;17.00;95.30
1347;DHT22;667;48.796;9.480;2022-10-16T04:41:29;17.00;95.20
1347;DHT22;667;48.796;9.480;2022-10-16T04:43:55;16.90;95.20
1347;DHT22;667;48.796;9.480;2022-10-16T04:46:20;17.00;95.20
1347;DHT22;667;48.796;9.480;2022-10-16T04:48:46;16.90;95.20
1347;DHT22;667;48.796;9.480;2022-10-16T04:51:12;16.90;95.20
1347;DHT22;667;48.796;9.480;2022-10-16T04:53:37;17.00;95.30
1347;DHT22;667;48.796;9.480;2022-10-16T04:56:03;16.90;95.30
1347;DHT22;667;48.796;9.480;2022-10-16T04:58:29;16.90;95.30
1347;DHT22;667;48.796;9.480;2022-10-16T05:00:54;16.90;95.30
1347;DHT22;667;48.796;9.480;2022-10-16T05:03:20;16.90;95.20
1347;DHT22;667;48.796;9.480;2022-10-16T05:05:46;16.90;95.20
1347;DHT22;667;48.796;9.480;2022-10-16T05:08:15;16.90;95.20
1347;DHT22;667;48.796;9.480;2022-10-16T05:10:42;16.90;95.20
1347;DHT22;667;48.796;9.480;2022-10-16T05:13:08;16.90;95.20
1347;DHT22;667;48.796;9.480;2022-10-16T05:15:34;16.90;95.20
1347;DHT22;667;48.796;9.480;2022-10-16T05:17:59;16.90;95.20
1347;DHT22;667;48.796;9.480;2022-10-16T05:20:25;16.90;95.20
1347;DHT22;667;48.796;9.480;2022-10-16T05:22:50;16.80;95.10
1347;DHT22;667;48.796;9.480;2022-10-16T05:25:16;16.80;95.10
1347;DHT22;667;48.796;9.480;2022-10-16T05:27:42;16.80;95.10
1347;DHT22;667;48.796;9.480;2022-10-16T05:30:08;16.90;95.20
1347;DHT22;667;48.796;9.480;2022-10-16T05:32:34;16.80;95.20
1347;DHT22;667;48.796;9.480;2022-10-16T05:34:59;16.80;95.20
1347;DHT22;667;48.796;9.480;2022-10-16T05:37:27;16.80;95.40
1347;DHT22;667;48.796;9.480;2022-10-16T05:39:52;16.80;95.20
1347;DHT22;667;48.796;9.480;2022-10-16T05:42:18;16.80;95.20
1347;DHT22;667;48.796;9.480;2022-10-16T05:44:44;16.80;95.20
1347;DHT22;667;48.796;9.480;2022-10-16T05:47:10;16.80;95.30
1347;DHT22;667;48.796;9.480;2022-10-16T05:49:37;16.80;95.30
1347;DHT22;667;48.796;9.480;2022-10-16T05:52:03;16.80;95.40
1347;DHT22;667;48.796;9.480;2022-10-16T05:54:28;16.80;95.40
1347;DHT22;667;48.796;9.480;2022-10-16T05:56:54;16.80;95.40
1347;DHT22;667;48.796;9.480;2022-10-16T05:59:19;16.80;95.40
1347;DHT22;667;48.796;9.480;2022-10-16T06:01:45;16.80;95.30
1347;DHT22;667;48.796;9.480;2022-10-16T06:04:10;16.80;95.20
1347;DHT22;667;48.796;9.480;2022-10-16T06:06:36;16.80;95.20
1347;DHT22;667;48.796;9.480;2022-10-16T06:09:02;16.80;95.10
1347;DHT22;667;48.796;9.480;2022-10-16T06:11:30;16.80;95.10
1347;DHT22;667;48.796;9.480;2022-10-16T06:13:58;16.80;95.20
1347;DHT22;667;48.796;9.480;2022-10-16T06:16:25;16.80;95.10
1347;DHT22;667;48.796;9.480;2022-10-16T06:18:52;16.80;95.10
1347;DHT22;667;48.796;9.480;2022-10-16T06:21:20;16.80;95.10
1347;DHT22;667;48.796;9.480;2022-10-16T06:23:47;16.80;95.10
1347;DHT22;667;48.796;9.480;2022-10-16T06:26:15;16.80;95.10
1347;DHT22;667;48.796;9.480;2022-10-16T06:28:41;16.80;95.10
1347;DHT22;667;48.796;9.480;2022-10-16T06:31:08;16.80;95.10
1347;DHT22;667;48.796;9.480;2022-10-16T06:33:34;16.80;95.10
1347;DHT22;667;48.796;9.480;2022-10-16T06:36:11;16.90;95.20
1347;DHT22;667;48.796;9.480;2022-10-16T06:38:37;16.80;95.20
1347;DHT22;667;48.796;9.480;2022-10-16T06:41:04;16.90;95.20
1347;DHT22;667;48.796;9.480;2022-10-16T06:43:30;16.90;95.30
1347;DHT22;667;48.796;9.480;2022-10-16T06:46:03;16.90;95.30
1347;DHT22;667;48.796;9.480;2022-10-16T06:48:30;16.90;95.40
1347;DHT22;667;48.796;9.480;2022-10-16T06:51:28;16.90;95.50
1347;DHT22;667;48.796;9.480;2022-10-16T06:53:53;16.90;95.60
1347;DHT22;667;48.796;9.480;2022-10-16T06:56:24;17.00;95.80
1347;DHT22;667;48.796;9.480;2022-10-16T06:58:50;17.00;95.80
1347;DHT22;667;48.796;9.480;2022-10-16T07:01:17;17.00;95.80
1347;DHT22;667;48.796;9.480;2022-10-16T07:03:45;17.10;96.00
1347;DHT22;667;48.796;9.480;2022-10-16T07:06:13;17.10;96.10
1347;DHT22;667;48.796;9.480;2022-10-16T07:08:42;17.20;96.20
1347;DHT22;667;48.796;9.480;2022-10-16T07:11:10;17.20;96.20
1347;DHT22;667;48.796;9.480;2022-10-16T07:13:37;17.20;96.20
1347;DHT22;667;48.796;9.480;2022-10-16T07:16:18;17.30;96.20
1347;DHT22;667;48.796;9.480;2022-10-16T07:18:44;17.30;96.30
1347;DHT22;667;48.796;9.480;2022-10-16T07:21:14;17.30;96.20
1347;DHT22;667;48.796;9.480;2022-10-16T07:23:40;17.40;96.20
1347;DHT22;667;48.796;9.480;2022-10-16T07:26:06;17.30;96.20
1347;DHT22;667;48.796;9.480;2022-10-16T07:28:33;17.30;96.20
1347;DHT22;667;48.796;9.480;2022-10-16T07:31:06;17.40;96.30
1347;DHT22;667;48.796;9.480;2022-10-16T07:33:34;17.40;96.30
1347;DHT22;667;48.796;9.480;2022-10-16T07:35:59;17.40;96.20
1347;DHT22;667;48.796;9.480;2022-10-16T07:38:25;17.40;96.20
1347;DHT22;667;48.796;9.480;2022-10-16T07:41:02;17.40;96.20
1347;DHT22;667;48.796;9.480;2022-10-16T07:43:28;17.50;96.20
1347;DHT22;667;48.796;9.480;2022-10-16T07:45:54;17.50;96.20
1347;DHT22;667;48.796;9.480;2022-10-16T07:48:21;17.50;96.30
1347;DHT22;667;48.796;9.480;2022-10-16T07:50:46;17.50;96.30
1347;DHT22;667;48.796;9.480;2022-10-16T07:53:12;17.50;96.20
1347;DHT22;667;48.796;9.480;2022-10-16T07:55:38;17.50;96.20
1347;DHT22;667;48.796;9.480;2022-10-16T07:58:04;17.60;96.30
1347;DHT22;667;48.796;9.480;2022-10-16T08:00:30;17.60;96.60
1347;DHT22;667;48.796;9.480;2022-10-16T08:02:57;17.60;96.30
1347;DHT22;667;48.796;9.480;2022-10-16T08:05:29;17.60;96.30
1347;DHT22;667;48.796;9.480;2022-10-16T08:07:56;17.60;96.30
1347;DHT22;667;48.796;9.480;2022-10-16T08:10:23;17.60;96.40
1347;DHT22;667;48.796;9.480;2022-10-16T08:12:50;17.60;96.40
1347;DHT22;667;48.796;9.480;2022-10-16T08:15:16;17.70;96.40
1347;DHT22;667;48.796;9.480;2022-10-16T08:17:42;17.70;96.40
1347;DHT22;667;48.796;9.480;2022-10-16T08:20:08;17.70;96.40
1347;DHT22;667;48.796;9.480;2022-10-16T08:22:34;17.70;96.30
1347;DHT22;667;48.796;9.480;2022-10-16T08:24:59;17.80;96.30
1347;DHT22;667;48.796;9.480;2022-10-16T08:27:25;17.80;96.40
1347;DHT22;667;48.796;9.480;2022-10-16T08:29:50;17.80;96.50
1347;DHT22;667;48.796;9.480;2022-10-16T08:32:16;17.80;96.60
1347;DHT22;667;48.796;9.480;2022-10-16T08:34:41;17.90;96.70
1347;DHT22;667;48.796;9.480;2022-10-16T08:37:07;17.90;96.70
1347;DHT22;667;48.796;9.480;2022-10-16T08:39:36;17.90;96.80
1347;DHT22;667;48.796;9.480;2022-10-16T08:45:08;18.00;96.90
1347;DHT22;667;48.796;9.480;2022-10-16T08:50:31;18.20;96.90
1347;DHT22;667;48.796;9.480;2022-10-16T08:52:58;18.20;96.80
1347;DHT22;667;48.796;9.480;2022-10-16T08:55:51;18.20;96.70
1347;DHT22;667;48.796;9.480;2022-10-16T09:00:51;18.30;96.50
1347;DHT22;667;48.796;9.480;2022-10-16T09:17:09;18.50;96.50
1347;DHT22;667;48.796;9.480;2022-10-16T09:19:44;18.50;96.50
1347;DHT22;667;48.796;9.480;2022-10-16T09:22:14;18.60;96.50
1347;DHT22;667;48.796;9.480;2022-10-16T09:24:41;18.60;96.50
1347;DHT22;667;48.796;9.480;2022-10-16T09:27:14;18.60;96.50
1347;DHT22;667;48.796;9.480;2022-10-16T09:29:40;18.70;96.80
1347;DHT22;667;48.796;9.480;2022-10-16T09:32:14;18.70;97.00
1347;DHT22;667;48.796;9.480;2022-10-16T09:34:48;18.80;97.10
1347;DHT22;667;48.796;9.480;2022-10-16T09:37:18;18.80;97.10
1347;DHT22;667;48.796;9.480;2022-10-16T09:39:52;18.90;97.10
1347;DHT22;667;48.796;9.480;2022-10-16T09:42:21;18.90;97.00
1347;DHT22;667;48.796;9.480;2022-10-16T09:44:50;19.00;96.80
1347;DHT22;667;48.796;9.480;2022-10-16T09:47:21;19.10;96.60
1347;DHT22;667;48.796;9.480;2022-10-16T09:49:55;19.10;96.20
1347;DHT22;667;48.796;9.480;2022-10-16T09:52:22;19.20;96.10
1347;DHT22;667;48.796;9.480;2022-10-16T09:54:59;19.20;96.30
1347;DHT22;667;48.796;9.480;2022-10-16T09:57:25;19.30;96.50
1347;DHT22;667;48.796;9.480;2022-10-16T09:59:53;19.40;96.60
1347;DHT22;667;48.796;9.480;2022-10-16T10:02:38;19.50;96.60
1347;DHT22;667;48.796;9.480;2022-10-16T10:05:21;19.70;96.40
1347;DHT22;667;48.796;9.480;2022-10-16T10:07:55;19.70;96.30
1347;DHT22;667;48.796;9.480;2022-10-16T10:10:27;19.90;96.30
1347;DHT22;667;48.796;9.480;2022-10-16T10:12:54;20.00;96.30
1347;DHT22;667;48.796;9.480;2022-10-16T10:15:21;20.10;96.00
1347;DHT22;667;48.796;9.480;2022-10-16T10:17:54;20.30;95.70
1347;DHT22;667;48.796;9.480;2022-10-16T10:20:32;20.40;95.30
1347;DHT22;667;48.796;9.480;2022-10-16T10:23:01;20.60;95.00
1347;DHT22;667;48.796;9.480;2022-10-16T10:39:00;21.30;92.20
1347;DHT22;667;48.796;9.480;2022-10-16T10:44:31;21.60;91.60
1347;DHT22;667;48.796;9.480;2022-10-16T11:06:02;22.80;85.60
1347;DHT22;667;48.796;9.480;2022-10-16T11:08:42;22.90;84.60
1347;DHT22;667;48.796;9.480;2022-10-16T11:17:32;23.10;82.70
1347;DHT22;667;48.796;9.480;2022-10-16T11:20:18;23.20;81.10
1347;DHT22;667;48.796;9.480;2022-10-16T11:25:40;23.30;80.40
1347;DHT22;667;48.796;9.480;2022-10-16T11:28:20;23.30;78.90
1347;DHT22;667;48.796;9.480;2022-10-16T11:36:03;23.40;77.60
1347;DHT22;667;48.796;9.480;2022-10-16T11:38:37;23.50;78.30
1347;DHT22;667;48.796;9.480;2022-10-16T11:44:16;23.50;77.50
1347;DHT22;667;48.796;9.480;2022-10-16T11:46:53;23.50;76.90
1347;DHT22;667;48.796;9.480;2022-10-16T11:49:22;23.50;75.00
1347;DHT22;667;48.796;9.480;2022-10-16T11:54:41;23.40;75.40
1347;DHT22;667;48.796;9.480;2022-10-16T11:57:53;23.40;75.40
1347;DHT22;667;48.796;9.480;2022-10-16T12:03:15;23.50;75.30
1347;DHT22;667;48.796;9.480;2022-10-16T12:08:52;23.50;74.70
1347;DHT22;667;48.796;9.480;2022-10-16T12:16:32;23.60;73.80
1347;DHT22;667;48.796;9.480;2022-10-16T12:19:15;23.60;72.60
1347;DHT22;667;48.796;9.480;2022-10-16T12:21:43;23.60;70.70
1347;DHT22;667;48.796;9.480;2022-10-16T12:24:38;23.60;69.90
1347;DHT22;667;48.796;9.480;2022-10-16T12:27:17;23.60;70.90
1347;DHT22;667;48.796;9.480;2022-10-16T12:29:45;23.60;71.40
1347;DHT22;667;48.796;9.480;2022-10-16T12:32:31;23.60;71.30
1347;DHT22;667;48.796;9.480;2022-10-16T12:35:01;23.60;70.40
1347;DHT22;667;48.796;9.480;2022-10-16T12:37:28;23.70;70.00
1347;DHT22;667;48.796;9.480;2022-10-16T12:39:56;23.70;70.00
1347;DHT22;667;48.796;9.480;2022-10-16T12:44:52;23.60;69.30
1347;DHT22;667;48.796;9.480;2022-10-16T12:52:49;23.60;68.60
1347;DHT22;667;48.796;9.480;2022-10-16T12:55:17;23.60;68.70
1347;DHT22;667;48.796;9.480;2022-10-16T13:00:24;23.60;68.40
1347;DHT22;667;48.796;9.480;2022-10-16T13:11:52;23.50;73.70
1347;DHT22;667;48.796;9.480;2022-10-16T13:27:54;23.10;79.70
1347;DHT22;667;48.796;9.480;2022-10-16T13:30:21;23.10;80.20
1347;DHT22;667;48.796;9.480;2022-10-16T13:32:50;22.90;80.60
1347;DHT22;667;48.796;9.480;2022-10-16T13:35:26;22.90;81.40
1347;DHT22;667;48.796;9.480;2022-10-16T13:38:13;22.80;82.20
1347;DHT22;667;48.796;9.480;2022-10-16T13:43:14;22.80;84.20
1347;DHT22;667;48.796;9.480;2022-10-16T13:45:39;22.80;84.60
1347;DHT22;667;48.796;9.480;2022-10-16T13:48:08;22.80;84.80
1347;DHT22;667;48.796;9.480;2022-10-16T13:50:34;22.80;84.70
1347;DHT22;667;48.796;9.480;2022-10-16T13:53:05;22.90;84.80
1347;DHT22;667;48.796;9.480;2022-10-16T13:55:31;22.90;84.90
1347;DHT22;667;48.796;9.480;2022-10-16T13:58:10;22.90;85.30
1347;DHT22;667;48.796;9.480;2022-10-16T14:00:37;22.90;85.10
1347;DHT22;667;48.796;9.480;2022-10-16T14:03:13;23.00;84.80
1347;DHT22;667;48.796;9.480;2022-10-16T14:05:47;23.00;84.50
1347;DHT22;667;48.796;9.480;2022-10-16T14:08:14;23.10;84.80
1347;DHT22;667;48.796;9.480;2022-10-16T14:10:40;23.00;84.60
1347;DHT22;667;48.796;9.480;2022-10-16T14:13:07;23.10;84.70
1347;DHT22;667;48.796;9.480;2022-10-16T14:15:35;23.10;84.80
1347;DHT22;667;48.796;9.480;2022-10-16T14:18:01;23.00;85.40
1347;DHT22;667;48.796;9.480;2022-10-16T14:20:30;23.10;86.00
1347;DHT22;667;48.796;9.480;2022-10-16T14:23:31;23.00;86.10
1347;DHT22;667;48.796;9.480;2022-10-16T14:28:36;22.90;86.20
1347;DHT22;667;48.796;9.480;2022-10-16T14:33:48;22.90;86.80
1347;DHT22;667;48.796;9.480;2022-10-16T14:36:15;22.80;87.10
1347;DHT22;667;48.796;9.480;2022-10-16T14:41:21;22.70;88.00
1347;DHT22;667;48.796;9.480;2022-10-16T14:43:51;22.60;88.30
1347;DHT22;667;48.796;9.480;2022-10-16T14:46:20;22.50;88.60
1347;DHT22;667;48.796;9.480;2022-10-16T14:48:48;22.50;89.00
1347;DHT22;667;48.796;9.480;2022-10-16T14:51:19;22.50;88.70
1347;DHT22;667;48.796;9.480;2022-10-16T14:53:45;22.40;88.40
1347;DHT22;667;48.796;9.480;2022-10-16T14:56:20;22.40;88.80
1347;DHT22;667;48.796;9.480;2022-10-16T14:58:47;22.30;89.00
1347;DHT22;667;48.796;9.480;2022-10-16T15:01:12;22.20;89.00
1347;DHT22;667;48.796;9.480;2022-10-16T15:03:38;22.20;88.90
1347;DHT22;667;48.796;9.480;2022-10-16T15:06:13;22.10;89.00
1347;DHT22;667;48.796;9.480;2022-10-16T15:08:39;22.10;89.30
1347;DHT22;667;48.796;9.480;2022-10-16T15:11:18;22.00;89.40
1347;DHT22;667;48.796;9.480;2022-10-16T15:13:45;22.00;89.20
1347;DHT22;667;48.796;9.480;2022-10-16T15:16:13;22.00;89.10
1347;DHT22;667;48.796;9.480;2022-10-16T15:18:39;22.00;89.10
1347;DHT22;667;48.796;9.480;2022-10-16T15:21:05;22.00;89.00
1347;DHT22;667;48.796;9.480;2022-10-16T15:23:31;22.00;89.10
1347;DHT22;667;48.796;9.480;2022-10-16T15:25:57;22.00;89.20
1347;DHT22;667;48.796;9.480;2022-10-16T15:28:24;21.90;89.30
1347;DHT22;667;48.796;9.480;2022-10-16T15:30:52;21.90;89.60
1347;DHT22;667;48.796;9.480;2022-10-16T15:33:20;21.90;90.00
1347;DHT22;667;48.796;9.480;2022-10-16T15:35:49;21.90;90.00
1347;DHT22;667;48.796;9.480;2022-10-16T15:38:16;21.80;90.10
1347;DHT22;667;48.796;9.480;2022-10-16T15:40:46;21.80;90.10
1347;DHT22;667;48.796;9.480;2022-10-16T15:43:14;21.80;90.20
1347;DHT22;667;48.796;9.480;2022-10-16T15:45:40;21.70;90.20
1347;DHT22;667;48.796;9.480;2022-10-16T15:48:08;21.70;90.30
1347;DHT22;667;48.796;9.480;2022-10-16T15:50:37;21.60;90.30
1347;DHT22;667;48.796;9.480;2022-10-16T15:53:03;21.60;90.20
1347;DHT22;667;48.796;9.480;2022-10-16T15:55:29;21.50;90.20
1347;DHT22;667;48.796;9.480;2022-10-16T15:57:55;21.50;90.30
1347;DHT22;667;48.796;9.480;2022-10-16T16:00:20;21.40;90.30
1347;DHT22;667;48.796;9.480;2022-10-16T16:02:53;21.40;90.40
1347;DHT22;667;48.796;9.480;2022-10-16T16:05:20;21.40;90.40
1347;DHT22;667;48.796;9.480;2022-10-16T16:07:47;21.30;90.40
1347;DHT22;667;48.796;9.480;2022-10-16T16:10:13;21.20;90.40
1347;DHT22;667;48.796;9.480;2022-10-16T16:12:39;21.20;90.50
1347;DHT22;667;48.796;9.480;2022-10-16T16:15:05;21.10;90.60
1347;DHT22;667;48.796;9.480;2022-10-16T16:17:32;21.00;90.70
1347;DHT22;667;48.796;9.480;2022-10-16T16:20:01;20.90;90.70
1347;DHT22;667;48.796;9.480;2022-10-16T16:22:30;20.80;90.90
1347;DHT22;667;48.796;9.480;2022-10-16T16:25:01;20.80;91.00
1347;DHT22;667;48.796;9.480;2022-10-16T16:27:26;20.80;91.10
1347;DHT22;667;48.796;9.480;2022-10-16T16:29:55;20.70;91.20
1347;DHT22;667;48.796;9.480;2022-10-16T16:32:21;20.60;91.20
1347;DHT22;667;48.796;9.480;2022-10-16T16:34:47;20.60;90.90
1347;DHT22;667;48.796;9.480;2022-10-16T16:37:12;20.60;90.90
1347;DHT22;667;48.796;9.480;2022-10-16T16:39:38;20.50;90.90
1347;DHT22;667;48.796;9.480;2022-10-16T16:42:04;20.50;90.90
1347;DHT22;667;48.796;9.480;2022-10-16T16:44:31;20.50;90.80
1347;DHT22;667;48.796;9.480;2022-10-16T16:46:57;20.40;90.80
1347;DHT22;667;48.796;9.480;2022-10-16T16:49:23;20.40;90.90
1347;DHT22;667;48.796;9.480;2022-10-16T16:51:49;20.30;91.00
1347;DHT22;667;48.796;9.480;2022-10-16T16:54:17;20.30;91.40
1347;DHT22;667;48.796;9.480;2022-10-16T16:56:43;20.20;91.20
1347;DHT22;667;48.796;9.480;2022-10-16T16:59:14;20.20;91.20
1347;DHT22;667;48.796;9.480;2022-10-16T17:01:40;20.20;91.30
1347;DHT22;667;48.796;9.480;2022-10-16T17:04:06;20.10;91.30
1347;DHT22;667;48.796;9.480;2022-10-16T17:06:32;20.10;91.40
1347;DHT22;667;48.796;9.480;2022-10-16T17:09:02;20.00;91.50
1347;DHT22;667;48.796;9.480;2022-10-16T17:11:28;20.00;91.70
1347;DHT22;667;48.796;9.480;2022-10-16T17:13:55;20.00;91.90
1347;DHT22;667;48.796;9.480;2022-10-16T17:16:26;19.90;91.90
1347;DHT22;667;48.796;9.480;2022-10-16T17:18:52;19.90;91.90
1347;DHT22;667;48.796;9.480;2022-10-16T17:21:18;19.90;92.10
1347;DHT22;667;48.796;9.480;2022-10-16T17:23:44;19.80;92.20
1347;DHT22;667;48.796;9.480;2022-10-16T17:26:13;19.80;92.30
1347;DHT22;667;48.796;9.480;2022-10-16T17:28:39;19.80;92.50
1347;DHT22;667;48.796;9.480;2022-10-16T17:31:17;19.80;92.80
1347;DHT22;667;48.796;9.480;2022-10-16T17:33:43;19.80;92.60
1347;DHT22;667;48.796;9.480;2022-10-16T17:36:09;19.80;92.60
1347;DHT22;667;48.796;9.480;2022-10-16T17:38:36;19.80;92.70
1347;DHT22;667;48.796;9.480;2022-10-16T17:41:19;19.80;92.70
1347;DHT22;667;48.796;9.480;2022-10-16T17:43:46;19.80;92.70
1347;DHT22;667;48.796;9.480;2022-10-16T17:46:13;19.70;92.70
1347;DHT22;667;48.796;9.480;2022-10-16T17:48:41;19.70;92.70
1347;DHT22;667;48.796;9.480;2022-10-16T17:51:08;19.70;92.80
1347;DHT22;667;48.796;9.480;2022-10-16T17:53:35;19.60;92.80
1347;DHT22;667;48.796;9.480;2022-10-16T17:56:06;19.60;93.00
1347;DHT22;667;48.796;9.480;2022-10-16T17:58:31;19.60;93.00
1347;DHT22;667;48.796;9.480;2022-10-16T18:00:57;19.60;93.10
1347;DHT22;667;48.796;9.480;2022-10-16T18:03:23;19.60;93.20
1347;DHT22;667;48.796;9.480;2022-10-16T18:05:54;19.60;93.20
1347;DHT22;667;48.796;9.480;2022-10-16T18:08:22;19.60;93.20
1347;DHT22;667;48.796;9.480;2022-10-16T18:10:49;19.50;93.20
1347;DHT22;667;48.796;9.480;2022-10-16T18:13:16;19.50;93.20
1347;DHT22;667;48.796;9.480;2022-10-16T18:15:42;19.50;93.20
1347;DHT22;667;48.796;9.480;2022-10-16T18:18:08;19.40;93.20
1347;DHT22;667;48.796;9.480;2022-10-16T18:20:34;19.40;93.20
1347;DHT22;667;48.796;9.480;2022-10-16T18:22:59;19.40;93.30
1347;DHT22;667;48.796;9.480;2022-10-16T18:25:25;19.30;93.40
1347;DHT22;667;48.796;9.480;2022-10-16T18:27:51;19.30;93.60
1347;DHT22;667;48.796;9.480;2022-10-16T18:30:16;19.20;93.80
1347;DHT22;667;48.796;9.480;2022-10-16T18:32:42;19.20;93.90
1347;DHT22;667;48.796;9.480;2022-10-16T18:35:08;19.10;93.90
1347;DHT22;667;48.796;9.480;2022-10-16T18:37:36;19.10;94.00
1347;DHT22;667;48.796;9.480;2022-10-16T18:40:03;19.10;93.90
1347;DHT22;667;48.796;9.480;2022-10-16T18:42:29;19.10;93.70
1347;DHT22;667;48.796;9.480;2022-10-16T18:44:55;19.00;93.70
1347;DHT22;667;48.796;9.480;2022-10-16T18:47:21;19.00;93.70